Time;durP1;ratioP1;P1;durP2;ratioP2;P2;SDS_P1;SDS_P2;PMS_P1;PMS_P2;Temp;Humidity;BMP_temperature;BMP_pressure;BME280_temperature;BME280_humidity;BME280_pressure;Samples;Min_cycle;Max_cycle;Signal;HPM_P1;HPM_P2
2022/12/31 00:01:27;;;;;;;2.03;0.55;;;;;;;10.74;100.00;97040.34;5027000;28;20118;-64
2022/12/31 00:03:54;;;;;;;2.05;0.40;;;;;;;10.93;100.00;97038.84;5035761;28;20088;-63
2022/12/31 00:06:25;;;;;;;0.73;0.40;;;;;;;11.08;100.00;97041.88;5027968;28;20049;-64
2022/12/31 00:08:54;;;;;;;1.75;0.43;;;;;;;11.05;100.00;97043.22;5034643;28;20056;-63
2022/12/31 00:11:22;;;;;;;0.70;0.30;;;;;;;11.14;100.00;97049.78;5028704;28;20040;-64
2022/12/31 00:13:50;;;;;;;2.70;0.57;;;;;;;11.25;100.00;97045.22;5032960;28;20088;-64
2022/12/31 00:16:26;;;;;;;1.80;0.52;;;;;;;11.29;100.00;97057.16;5027106;28;20045;-63
2022/12/31 00:18:57;;;;;;;1.95;0.50;;;;;;;11.24;100.00;97051.72;5048100;28;20120;-65
2022/12/31 00:21:26;;;;;;;0.73;0.38;;;;;;;11.38;100.00;97062.88;5046475;28;20045;-63
2022/12/31 00:23:52;;;;;;;0.50;0.32;;;;;;;11.34;100.00;97069.09;5036683;28;20084;-65
2022/12/31 00:26:21;;;;;;;1.38;0.35;;;;;;;11.41;100.00;97066.97;5027233;28;20132;-64
2022/12/31 00:28:48;;;;;;;0.85;0.50;;;;;;;11.47;100.00;97076.75;5027437;28;20037;-63
2022/12/31 00:31:19;;;;;;;1.30;0.52;;;;;;;11.50;100.00;97075.41;5033306;28;20151;-63
2022/12/31 00:33:46;;;;;;;1.08;0.38;;;;;;;11.55;100.00;97078.13;5048031;28;20072;-64
2022/12/31 00:36:15;;;;;;;1.02;0.40;;;;;;;11.54;100.00;97084.66;5047159;28;20044;-64
2022/12/31 00:38:44;;;;;;;0.90;0.50;;;;;;;11.60;100.00;97077.34;5026414;28;20051;-63
2022/12/31 00:41:12;;;;;;;0.30;0.20;;;;;;;11.62;100.00;97088.72;5026805;28;20045;-63
2022/12/31 00:43:39;;;;;;;1.13;0.50;;;;;;;11.65;100.00;97080.06;5025359;28;20053;-63
2022/12/31 00:46:07;;;;;;;0.30;0.28;;;;;;;11.61;100.00;97082.47;5043842;28;20036;-65
2022/12/31 00:48:34;;;;;;;0.32;0.25;;;;;;;11.64;100.00;97095.53;5047642;28;20037;-62
2022/12/31 00:51:02;;;;;;;1.13;0.50;;;;;;;11.65;100.00;97101.78;5046659;28;20053;-64
2022/12/31 00:53:29;;;;;;;1.77;0.40;;;;;;;11.70;100.00;97099.91;5046973;28;20114;-64
2022/12/31 00:56:04;;;;;;;1.02;0.50;;;;;;;11.69;100.00;97102.88;5026555;28;20406;-63
2022/12/31 00:58:32;;;;;;;0.30;0.20;;;;;;;11.62;100.00;97103.13;5031808;28;20041;-62
2022/12/31 01:01:07;;;;;;;1.23;0.30;;;;;;;11.64;100.00;97105.56;5027032;28;20332;-62
2022/12/31 01:03:34;;;;;;;1.15;0.40;;;;;;;11.64;100.00;97102.84;5027593;28;20155;-62
2022/12/31 01:06:01;;;;;;;1.05;0.38;;;;;;;11.58;100.00;97100.09;5026539;28;20073;-62
2022/12/31 01:08:27;;;;;;;1.30;0.52;;;;;;;11.62;100.00;97105.84;5041277;28;20052;-62
2022/12/31 01:13:50;;;;;;;2.53;0.25;;;;;;;11.54;100.00;97125.31;5035777;28;20064;-63
2022/12/31 01:16:22;;;;;;;0.67;0.37;;;;;;;11.52;100.00;97133.72;5045322;28;20037;-64
2022/12/31 01:18:50;;;;;;;1.25;0.45;;;;;;;11.54;100.00;97142.38;5037628;28;20123;-62
2022/12/31 01:21:18;;;;;;;0.60;0.20;;;;;;;11.58;100.00;97142.69;5025613;28;20492;-62
2022/12/31 01:23:44;;;;;;;1.33;0.40;;;;;;;11.55;100.00;97148.63;5035047;28;20081;-64
2022/12/31 01:26:14;;;;;;;0.85;0.38;;;;;;;11.56;100.00;97147.53;5040974;28;20045;-64
2022/12/31 01:28:40;;;;;;;0.40;0.30;;;;;;;11.53;100.00;97157.03;5032262;28;20064;-62
2022/12/31 01:31:12;;;;;;;0.90;0.50;;;;;;;11.50;100.00;97156.75;5024430;28;20037;-63
2022/12/31 01:33:41;;;;;;;0.45;0.22;;;;;;;11.44;100.00;97156.72;5026357;28;20077;-62
2022/12/31 01:36:13;;;;;;;1.67;0.20;;;;;;;11.44;100.00;97161.31;5040439;28;20492;-63
2022/12/31 01:38:41;;;;;;;0.20;0.20;;;;;;;11.42;100.00;97160.75;5036812;28;20076;-62
2022/12/31 01:41:13;;;;;;;1.50;0.47;;;;;;;11.34;100.00;97167.50;5025131;28;20041;-63
2022/12/31 01:43:53;;;;;;;0.68;0.30;;;;;;;11.30;100.00;97164.50;5027310;28;20107;-64
2022/12/31 01:46:26;;;;;;;0.43;0.30;;;;;;;11.18;100.00;97167.38;5025264;28;20057;-64
2022/12/31 01:48:59;;;;;;;1.95;0.30;;;;;;;11.18;100.00;97158.47;5032186;28;20436;-63
2022/12/31 01:51:29;;;;;;;0.60;0.30;;;;;;;11.26;100.00;97174.22;5036563;28;20041;-63
2022/12/31 01:53:57;;;;;;;0.70;0.38;;;;;;;11.25;100.00;97169.91;5025637;28;20041;-64
2022/12/31 01:56:25;;;;;;;0.70;0.30;;;;;;;11.39;100.00;97172.16;5042807;28;20076;-63
2022/12/31 01:58:55;;;;;;;0.25;0.20;;;;;;;11.40;100.00;97171.06;5035303;28;20057;-61
2022/12/31 02:01:29;;;;;;;1.35;0.40;;;;;;;11.39;100.00;97172.16;5022992;28;20073;-64
2022/12/31 02:03:58;;;;;;;3.78;0.50;;;;;;;11.47;100.00;97168.94;5026453;28;20041;-64
2022/12/31 02:06:45;;;;;;;0.95;0.55;;;;;;;11.49;100.00;97174.91;5033555;28;20402;-63
2022/12/31 02:09:12;;;;;;;0.70;0.30;;;;;;;11.49;100.00;97174.91;5059827;28;20089;-63
2022/12/31 02:11:39;;;;;;;0.70;0.30;;;;;;;11.49;100.00;97174.91;5057196;28;20044;-63
2022/12/31 02:14:14;;;;;;;0.98;0.32;;;;;;;11.42;100.00;97182.44;5034821;28;20244;-63
2022/12/31 02:16:59;;;;;;;0.85;0.30;;;;;;;11.49;99.71;97176.78;5025685;28;20045;-63
2022/12/31 02:19:44;;;;;;;0.70;0.30;;;;;;;11.60;99.07;97177.69;5025176;28;20042;-63
2022/12/31 02:22:32;;;;;;;1.20;0.60;;;;;;;11.64;98.74;97178.78;5024377;28;20075;-63
2022/12/31 02:25:25;;;;;;;0.93;0.45;;;;;;;11.65;98.45;97181.22;5040030;28;20564;-62
2022/12/31 02:27:52;;;;;;;1.70;0.40;;;;;;;11.68;98.07;97179.88;5030473;28;20068;-61
2022/12/31 02:30:21;;;;;;;1.40;0.35;;;;;;;11.63;98.77;97188.81;5042783;28;20467;-63
2022/12/31 02:33:00;;;;;;;0.77;0.30;;;;;;;11.69;98.83;97197.78;5031310;28;20053;-62
2022/12/31 02:35:48;;;;;;;0.63;0.30;;;;;;;11.70;98.26;97194.00;5024851;28;20272;-62
2022/12/31 02:38:31;;;;;;;0.82;0.50;;;;;;;11.74;98.02;97189.69;5036490;28;20057;-63
2022/12/31 02:40:58;;;;;;;1.23;0.60;;;;;;;11.71;97.92;97187.47;5027406;28;20033;-62
2022/12/31 02:43:25;;;;;;;3.20;0.68;;;;;;;11.53;97.98;97181.44;5032521;28;20046;-62
2022/12/31 02:46:18;;;;;;;0.82;0.40;;;;;;;11.40;99.11;97177.31;5054981;28;20456;-63
2022/12/31 02:49:00;;;;;;;1.05;0.50;;;;;;;11.42;99.42;97185.16;5046295;28;20497;-64
2022/12/31 02:51:29;;;;;;;1.40;0.38;;;;;;;11.45;99.46;97190.06;5042403;28;20072;-64
2022/12/31 02:54:02;;;;;;;1.67;0.43;;;;;;;11.43;98.94;97193.03;5030446;28;20037;-64
2022/12/31 02:56:42;;;;;;;1.73;0.45;;;;;;;11.42;98.71;97185.97;5038994;28;20124;-62
2022/12/31 03:02:14;;;;;;;0.52;0.30;;;;;;;11.49;98.09;97172.19;5034265;28;20519;-63
2022/12/31 03:04:51;;;;;;;0.95;0.52;;;;;;;11.49;98.83;97183.03;5028093;28;20077;-63
2022/12/31 03:07:22;;;;;;;1.90;0.57;;;;;;;11.57;98.09;97177.13;5042842;28;20129;-64
2022/12/31 03:09:49;;;;;;;1.08;0.50;;;;;;;11.69;97.52;97181.53;5056258;28;20523;-64
2022/12/31 03:15:05;;;;;;;2.08;0.60;;;;;;;11.80;96.48;97168.81;5040986;28;20051;-62
2022/12/31 03:17:33;;;;;;;1.13;0.43;;;;;;;11.86;96.17;97177.81;5044399;28;20036;-62
2022/12/31 03:22:45;;;;;;;1.10;0.60;;;;;;;11.81;96.77;97181.28;5024247;28;20075;-63
2022/12/31 03:28:22;;;;;;;1.83;0.40;;;;;;;11.88;96.38;97191.91;5024028;28;20598;-62
2022/12/31 03:30:52;;;;;;;1.20;0.75;;;;;;;11.82;96.80;97200.03;5024968;28;20057;-62
2022/12/31 03:33:20;;;;;;;0.82;0.40;;;;;;;11.77;97.19;97200.00;5029634;28;20385;-64
2022/12/31 03:35:47;;;;;;;1.95;0.80;;;;;;;11.74;97.79;97194.28;5029746;28;20497;-63
2022/12/31 03:38:15;;;;;;;1.27;0.50;;;;;;;11.68;97.77;97188.84;5041593;28;20045;-61
2022/12/31 03:40:47;;;;;;;1.60;0.45;;;;;;;11.67;98.26;97194.50;5026599;28;20057;-62
2022/12/31 03:43:14;;;;;;;;;;;;;;;11.75;98.41;97207.56;5028099;28;20053;-64
2022/12/31 03:45:41;;;;;;;1.13;0.55;;;;;;;11.81;98.43;97206.53;5032025;28;19988;-63
2022/12/31 03:48:09;;;;;;;1.90;0.52;;;;;;;11.82;98.25;97200.03;5028308;28;20045;-62
2022/12/31 03:50:36;;;;;;;1.55;0.70;;;;;;;11.78;99.03;97200.81;5027664;28;20037;-62
2022/12/31 03:53:03;;;;;;;1.52;0.63;;;;;;;11.68;99.23;97194.25;5030926;28;20451;-64
2022/12/31 03:55:29;;;;;;;1.20;0.45;;;;;;;11.65;99.12;97192.06;5038635;28;20072;-62
2022/12/31 03:57:56;;;;;;;1.63;0.63;;;;;;;11.53;99.82;97202.28;5047160;28;20033;-62
2022/12/31 04:00:23;;;;;;;1.17;0.52;;;;;;;11.63;100.00;97193.41;5040415;28;20052;-61
2022/12/31 04:02:50;;;;;;;0.93;0.50;;;;;;;11.51;100.00;97199.88;5047697;28;20045;-62
2022/12/31 04:05:18;;;;;;;1.35;0.50;;;;;;;11.60;100.00;97193.94;5047359;28;20041;-62
2022/12/31 04:07:45;;;;;;;1.80;0.70;;;;;;;11.77;100.00;97188.31;5039320;28;20052;-62
2022/12/31 04:10:14;;;;;;;1.65;0.55;;;;;;;11.88;99.93;97200.88;5028232;28;20042;-62
2022/12/31 04:12:41;;;;;;;1.83;0.55;;;;;;;11.84;99.78;97199.75;5042618;28;20095;-63
2022/12/31 04:15:10;;;;;;;1.50;0.55;;;;;;;11.90;99.67;97200.59;5029792;28;20046;-62
2022/12/31 04:17:36;;;;;;;2.95;1.08;;;;;;;11.91;99.42;97191.38;5033625;28;20065;-63
2022/12/31 04:20:03;;;;;;;0.90;0.43;;;;;;;11.98;99.82;97191.97;5034081;28;20077;-64
2022/12/31 04:22:30;;;;;;;2.67;0.40;;;;;;;11.97;99.83;97187.59;5025580;28;20045;-62
2022/12/31 04:24:57;;;;;;;1.85;0.40;;;;;;;11.98;100.00;97202.81;5027061;28;20533;-63
2022/12/31 04:27:23;;;;;;;1.15;0.40;;;;;;;11.99;98.96;97198.19;5027456;28;20559;-65
2022/12/31 04:29:50;;;;;;;1.73;0.40;;;;;;;11.99;99.50;97204.44;5028228;28;20076;-65
2022/12/31 04:32:16;;;;;;;1.00;0.40;;;;;;;11.94;99.33;97204.41;5026962;28;20049;-64
2022/12/31 04:34:43;;;;;;;0.63;0.40;;;;;;;11.94;100.00;97213.34;5026376;28;20125;-65
2022/12/31 04:37:09;;;;;;;1.73;0.65;;;;;;;11.92;99.60;97206.56;5027000;28;20037;-65
2022/12/31 04:39:36;;;;;;;0.52;0.30;;;;;;;11.88;99.89;97213.59;5027494;28;20793;-65
2022/12/31 04:42:02;;;;;;;3.15;0.68;;;;;;;11.80;100.00;97206.78;5026102;28;20117;-65
2022/12/31 04:44:30;;;;;;;1.65;0.60;;;;;;;11.81;100.00;97220.09;5038153;28;20119;-64
2022/12/31 04:46:57;;;;;;;1.98;0.60;;;;;;;11.89;100.00;97220.66;5027218;28;20052;-65
2022/12/31 04:49:23;;;;;;;1.88;0.50;;;;;;;11.95;100.00;97223.13;5036728;28;20048;-64
2022/12/31 04:51:50;;;;;;;1.00;0.43;;;;;;;12.12;99.28;97221.34;5029540;28;20088;-65
2022/12/31 04:54:16;;;;;;;0.85;0.35;;;;;;;12.12;99.26;97227.56;5031116;28;20072;-65
2022/12/31 04:56:43;;;;;;;0.75;0.30;;;;;;;12.25;98.59;97239.84;5042348;28;20072;-65
2022/12/31 04:59:10;;;;;;;1.70;0.63;;;;;;;12.43;97.27;97240.44;5031351;28;20185;-65
2022/12/31 05:01:38;;;;;;;1.00;0.45;;;;;;;12.35;97.17;97242.59;5035474;28;20052;-65
2022/12/31 05:04:05;;;;;;;1.10;0.52;;;;;;;12.37;97.23;97234.16;5028602;28;20056;-65
2022/12/31 05:06:31;;;;;;;0.55;0.45;;;;;;;12.25;97.46;97239.00;5026626;28;20037;-65
2022/12/31 05:08:59;;;;;;;1.92;0.45;;;;;;;12.32;97.49;97247.75;5045878;28;20037;-64
2022/12/31 05:11:26;;;;;;;1.33;0.50;;;;;;;12.25;98.05;97253.41;5035021;28;20069;-64
2022/12/31 05:13:52;;;;;;;0.65;0.50;;;;;;;12.27;97.92;97251.25;5044307;28;20554;-64
2022/12/31 05:16:19;;;;;;;0.88;0.32;;;;;;;12.28;98.00;97250.19;5025782;28;20053;-64
2022/12/31 05:18:46;;;;;;;2.55;0.60;;;;;;;12.42;97.07;97252.38;5046172;28;20060;-64
2022/12/31 05:21:19;;;;;;;0.95;0.30;;;;;;;12.55;96.45;97251.06;5041399;28;20033;-64
2022/12/31 05:23:46;;;;;;;1.45;0.60;;;;;;;12.58;96.44;97258.66;5026811;28;20052;-64
2022/12/31 05:26:12;;;;;;;1.45;0.70;;;;;;;12.67;96.24;97265.22;5025790;28;20102;-64
2022/12/31 05:28:39;;;;;;;0.70;0.40;;;;;;;12.84;95.27;97250.56;5025338;28;20073;-64
2022/12/31 05:31:05;;;;;;;1.65;0.60;;;;;;;12.84;95.25;97251.41;5025202;28;20508;-64
2022/12/31 05:33:32;;;;;;;1.20;0.60;;;;;;;12.82;95.36;97253.56;5029294;28;20045;-64
2022/12/31 05:35:59;;;;;;;1.52;0.43;;;;;;;12.73;95.84;97256.00;5046755;28;20072;-65
2022/12/31 05:38:25;;;;;;;1.58;0.60;;;;;;;12.87;94.91;97253.56;5048333;28;20053;-64
2022/12/31 05:41:18;;;;;;;2.13;0.60;;;;;;;12.78;95.83;97260.59;5026752;28;20055;-64
2022/12/31 05:43:45;;;;;;;1.40;0.50;;;;;;;12.72;96.07;97250.84;5030954;28;20215;-64
2022/12/31 05:46:11;;;;;;;1.08;0.52;;;;;;;12.77;96.05;97256.28;5031434;28;20048;-64
2022/12/31 05:48:38;;;;;;;3.38;0.50;;;;;;;12.82;95.60;97261.69;5029374;28;20048;-64
2022/12/31 05:51:05;;;;;;;1.05;0.65;;;;;;;12.85;95.65;97266.59;5033985;28;20134;-64
2022/12/31 05:53:33;;;;;;;0.88;0.40;;;;;;;12.90;95.30;97271.22;5045330;28;20572;-64
2022/12/31 05:55:59;;;;;;;1.25;0.50;;;;;;;12.85;95.36;97282.91;5036411;28;20069;-63
2022/12/31 05:58:26;;;;;;;1.13;0.60;;;;;;;12.87;95.37;97286.16;5026338;28;20095;-64
2022/12/31 06:00:53;;;;;;;0.93;0.50;;;;;;;12.88;95.43;97287.00;5024533;28;20041;-64
2022/12/31 06:03:20;;;;;;;1.42;0.50;;;;;;;12.86;95.83;97283.72;5024858;28;20045;-63
2022/12/31 06:05:46;;;;;;;0.30;0.30;;;;;;;12.84;96.09;97297.59;5023698;28;20048;-64
2022/12/31 06:08:13;;;;;;;2.35;0.68;;;;;;;12.88;95.58;97301.41;5047743;28;20040;-51
2022/12/31 06:10:40;;;;;;;1.73;0.50;;;;;;;12.87;95.89;97291.59;5042866;28;20076;-52
2022/12/31 06:13:07;;;;;;;0.93;0.43;;;;;;;12.85;95.69;97296.50;5043300;28;20427;-51
2022/12/31 06:15:40;;;;;;;0.85;0.47;;;;;;;12.80;96.12;97288.34;5045496;28;20136;-51
2022/12/31 06:18:07;;;;;;;1.75;0.95;;;;;;;12.77;96.41;97301.63;5039580;28;20041;-49
2022/12/31 06:20:37;;;;;;;1.42;0.57;;;;;;;12.69;96.70;97292.09;5045651;28;20076;-49
2022/12/31 06:23:04;;;;;;;0.93;0.40;;;;;;;12.75;96.32;97288.31;5043243;28;20127;-52
2022/12/31 06:25:31;;;;;;;1.00;0.50;;;;;;;12.77;95.92;97296.19;5043668;28;20032;-51
2022/12/31 06:27:58;;;;;;;0.93;0.50;;;;;;;12.83;95.61;97304.09;5037153;28;20080;-54
2022/12/31 06:30:25;;;;;;;1.88;0.50;;;;;;;12.89;95.04;97313.06;5022937;28;20129;-54
2022/12/31 06:32:51;;;;;;;0.95;0.40;;;;;;;12.91;94.85;97323.69;5022066;28;20120;-50
2022/12/31 06:35:18;;;;;;;1.38;0.60;;;;;;;12.80;94.97;97311.97;5026356;28;20037;-48
2022/12/31 06:37:44;;;;;;;0.73;0.50;;;;;;;12.71;95.77;97308.94;5027788;28;20129;-50
2022/12/31 06:40:12;;;;;;;2.47;0.60;;;;;;;12.61;96.31;97302.41;5028255;28;20048;-61
2022/12/31 06:42:38;;;;;;;0.80;0.50;;;;;;;12.64;95.63;97308.41;5028291;28;20525;-62
2022/12/31 06:45:05;;;;;;;1.35;0.70;;;;;;;12.63;95.47;97285.84;5039849;28;20069;-62
2022/12/31 06:47:32;;;;;;;1.38;0.60;;;;;;;12.62;95.47;97289.66;5041824;28;20080;-62
2022/12/31 06:49:59;;;;;;;3.08;0.90;;;;;;;12.65;95.05;97296.44;5043429;28;20065;-62
2022/12/31 06:52:25;;;;;;;1.77;0.60;;;;;;;12.61;95.49;97288.81;5030056;28;20080;-62
2022/12/31 06:54:52;;;;;;;1.00;0.50;;;;;;;12.70;94.77;97299.16;5022729;28;20536;-62
2022/12/31 06:57:19;;;;;;;0.95;0.55;;;;;;;12.54;95.52;97288.28;5023225;28;20651;-62
2022/12/31 06:59:46;;;;;;;2.72;0.60;;;;;;;12.54;95.29;97287.44;5028443;28;20038;-62
2022/12/31 07:02:15;;;;;;;1.45;0.55;;;;;;;12.55;95.12;97287.19;5027825;28;20045;-62
2022/12/31 07:05:25;;;;;;;1.58;0.57;;;;;;;12.67;94.08;97294.25;5027580;28;20493;-62
2022/12/31 07:07:58;;;;;;;1.55;0.73;;;;;;;12.71;93.90;97296.19;5042539;28;20102;-62
2022/12/31 07:10:30;;;;;;;1.83;0.60;;;;;;;12.74;93.71;97292.13;5041225;28;20068;-62
2022/12/31 07:13:00;;;;;;;1.77;0.65;;;;;;;12.73;93.59;97304.91;5046193;28;20037;-62
2022/12/31 07:15:54;;;;;;;4.10;0.82;;;;;;;12.68;94.21;97302.16;5045129;28;20045;-62
2022/12/31 07:18:46;;;;;;;1.63;0.65;;;;;;;12.81;93.44;97314.41;5040758;28;20119;-63
2022/12/31 07:21:15;;;;;;;1.35;0.60;;;;;;;12.83;93.35;97309.53;5032945;28;20044;-62
2022/12/31 07:23:42;;;;;;;0.93;0.57;;;;;;;12.87;93.10;97326.91;5041627;28;20052;-62
2022/12/31 07:26:29;;;;;;;2.08;0.68;;;;;;;12.93;92.74;97318.81;5048226;28;20041;-62
2022/12/31 07:29:10;;;;;;;1.33;0.75;;;;;;;12.95;92.57;97319.34;5033148;28;20655;-62
2022/12/31 07:32:02;;;;;;;1.38;0.57;;;;;;;13.01;92.12;97331.84;5027812;28;20172;-62
2022/12/31 07:34:55;;;;;;;1.13;0.50;;;;;;;13.03;92.21;97326.13;5028394;28;20124;-62
2022/12/31 07:37:54;;;;;;;2.78;0.65;;;;;;;13.04;91.97;97327.78;5042987;28;20049;-62
2022/12/31 07:40:32;;;;;;;2.60;0.60;;;;;;;13.07;91.68;97324.50;5029143;28;20099;-62
2022/12/31 07:43:02;;;;;;;2.30;0.60;;;;;;;13.12;91.36;97322.63;5040443;28;20626;-62
2022/12/31 07:45:46;;;;;;;1.20;0.47;;;;;;;13.19;90.66;97321.56;5037584;28;20056;-62
2022/12/31 07:48:22;;;;;;;4.03;0.60;;;;;;;13.15;90.92;97321.25;5032947;28;20064;-62
2022/12/31 07:50:50;;;;;;;2.72;0.60;;;;;;;13.15;90.81;97321.25;5041481;28;20432;-61
2022/12/31 07:53:17;;;;;;;1.55;0.52;;;;;;;13.15;90.69;97337.56;5050620;28;20053;-62
2022/12/31 07:55:43;;;;;;;1.67;0.88;;;;;;;13.19;90.37;97338.66;5042717;28;20067;-62
2022/12/31 07:58:36;;;;;;;1.83;0.70;;;;;;;13.06;91.54;97341.91;5040131;28;20559;-61
2022/12/31 08:01:03;;;;;;;5.65;0.88;;;;;;;13.23;89.94;97347.13;5020123;28;20057;-62
2022/12/31 08:03:33;;;;;;;2.35;0.60;;;;;;;13.22;89.70;97345.47;5045522;28;20136;-62
2022/12/31 08:06:09;;;;;;;1.02;0.45;;;;;;;13.29;89.35;97350.63;5044157;28;20049;-62
2022/12/31 08:08:57;;;;;;;1.73;0.40;;;;;;;13.35;88.70;97342.22;5035607;28;20046;-62
2022/12/31 08:11:43;;;;;;;1.10;0.70;;;;;;;13.43;87.76;97354.47;5042266;28;20559;-62
2022/12/31 08:14:11;;;;;;;1.95;0.40;;;;;;;13.45;87.31;97351.50;5031486;28;20049;-62
2022/12/31 08:16:38;;;;;;;2.00;0.40;;;;;;;13.52;86.70;97349.31;5031796;28;20152;-62
2022/12/31 08:19:05;;;;;;;2.35;0.57;;;;;;;13.55;86.41;97354.22;5036971;28;20524;-61
2022/12/31 08:21:45;;;;;;;0.80;0.57;;;;;;;13.57;86.27;97357.50;5039238;28;20048;-61
2022/12/31 08:24:17;;;;;;;4.25;0.52;;;;;;;13.55;86.12;97348.78;5033429;28;20052;-61
2022/12/31 08:26:59;;;;;;;2.13;0.57;;;;;;;13.55;86.11;97367.00;5032269;28;20056;-62
2022/12/31 08:30:07;;;;;;;1.52;0.50;;;;;;;13.60;85.62;97367.81;5041166;28;20087;-62
2022/12/31 08:32:43;;;;;;;1.05;0.60;;;;;;;13.57;85.78;97359.41;5053257;28;20049;-63
2022/12/31 08:35:13;;;;;;;1.42;0.55;;;;;;;13.62;85.40;97373.00;5039185;28;20413;-63
2022/12/31 08:37:50;;;;;;;0.52;0.40;;;;;;;13.55;85.65;97367.84;5026832;28;20144;-62
2022/12/31 08:40:37;;;;;;;3.20;0.50;;;;;;;13.70;84.63;97385.22;5027056;28;20041;-63
2022/12/31 08:43:22;;;;;;;0.50;0.40;;;;;;;13.70;84.46;97386.06;5038319;28;20496;-63
2022/12/31 08:45:51;;;;;;;1.30;0.63;;;;;;;13.63;84.93;97383.63;5035010;28;20038;-63
2022/12/31 08:48:39;;;;;;;1.70;0.60;;;;;;;13.68;84.99;97390.16;5044553;28;20049;-62
2022/12/31 08:51:16;;;;;;;1.65;0.60;;;;;;;13.64;84.99;97403.50;5025504;28;20045;-62
2022/12/31 08:53:43;;;;;;;1.75;0.70;;;;;;;13.64;84.96;97406.22;5039847;28;20033;-63
2022/12/31 08:56:25;;;;;;;1.65;0.50;;;;;;;13.61;85.40;97402.13;5042829;28;20552;-63
2022/12/31 08:59:17;;;;;;;2.20;0.57;;;;;;;13.55;85.73;97408.63;5038696;28;20424;-62
2022/12/31 09:02:12;;;;;;;2.35;0.70;;;;;;;13.53;86.05;97395.31;5028647;28;20057;-63
2022/12/31 09:04:39;;;;;;;1.70;0.60;;;;;;;13.63;85.64;97396.38;5030149;28;20045;-62
2022/12/31 09:07:08;;;;;;;1.00;0.50;;;;;;;13.74;85.18;97399.94;5024299;28;20050;-63
2022/12/31 09:09:54;;;;;;;1.00;0.50;;;;;;;13.80;84.55;97401.59;5051088;28;20053;-63
2022/12/31 09:12:23;;;;;;;1.65;0.93;;;;;;;13.95;83.38;97394.47;5035814;28;20122;-63
2022/12/31 09:15:02;;;;;;;0.50;0.45;;;;;;;14.05;82.86;97408.09;5031620;28;20095;-63
2022/12/31 09:17:45;;;;;;;1.35;0.60;;;;;;;14.10;83.03;97402.66;5024970;28;20679;-62
2022/12/31 09:20:26;;;;;;;2.67;1.02;;;;;;;14.13;82.44;97415.72;5038018;28;20049;-63
2022/12/31 09:23:07;;;;;;;1.92;0.70;;;;;;;14.26;81.67;97399.91;5028214;28;20045;-62
2022/12/31 09:25:43;;;;;;;1.90;0.50;;;;;;;14.27;81.80;97410.50;5036903;28;20562;-62
2022/12/31 09:28:15;;;;;;;2.13;0.60;;;;;;;14.30;80.90;97403.72;5044600;28;20388;-63
2022/12/31 09:31:20;;;;;;;3.83;1.17;;;;;;;14.27;80.70;97412.44;5028260;28;20041;-63
2022/12/31 09:33:59;;;;;;;1.52;0.55;;;;;;;14.23;81.48;97428.47;5051796;28;20040;-62
2022/12/31 09:36:33;;;;;;;2.08;0.90;;;;;;;14.27;81.30;97420.59;5031625;28;20124;-63
2022/12/31 09:39:15;;;;;;;1.83;0.75;;;;;;;14.35;81.25;97420.03;5037817;28;20045;-63
2022/12/31 09:41:44;;;;;;;1.95;0.70;;;;;;;14.41;80.54;97424.38;5026294;28;20049;-63
2022/12/31 09:44:29;;;;;;;1.83;0.60;;;;;;;14.38;80.63;97426.84;5041767;28;20053;-62
2022/12/31 09:46:56;;;;;;;1.55;0.55;;;;;;;14.47;80.02;97424.34;5027629;28;20096;-62
2022/12/31 09:49:50;;;;;;;0.65;0.40;;;;;;;14.55;79.15;97423.78;5029438;28;20069;-63
2022/12/31 09:52:36;;;;;;;1.38;0.60;;;;;;;14.67;78.53;97416.13;5040215;28;20558;-63
2022/12/31 09:55:25;;;;;;;1.23;0.70;;;;;;;14.81;78.56;97431.91;5044515;28;20040;-61
2022/12/31 09:58:46;;;;;;;1.98;0.60;;;;;;;14.91;76.90;97429.16;5033097;28;20548;-62
2022/12/31 10:01:49;;;;;;;3.35;0.75;;;;;;;14.99;76.37;97427.75;4986552;28;20376;-62
2022/12/31 10:04:33;;;;;;;0.60;0.40;;;;;;;15.02;76.45;97420.94;5034855;28;20053;-61
2022/12/31 10:07:42;;;;;;;1.33;0.60;;;;;;;15.02;75.93;97423.66;5055926;28;20048;-63
2022/12/31 10:10:22;;;;;;;2.45;0.80;;;;;;;15.01;75.58;97422.84;5043798;28;20053;-64
2022/12/31 10:13:15;;;;;;;;;;;;;;;15.05;75.62;97415.75;5048189;28;20129;-64
2022/12/31 10:16:00;;;;;;;0.85;0.38;;;;;;;15.12;74.16;97415.44;5039439;28;19921;-63
2022/12/31 10:18:45;;;;;;;0.68;0.40;;;;;;;15.13;74.77;97427.97;5043012;28;20048;-63
2022/12/31 10:22:07;;;;;;;1.27;0.50;;;;;;;15.28;74.93;97431.69;5047213;28;20136;-64
2022/12/31 10:24:58;;;;;;;0.73;0.38;;;;;;;15.35;74.08;97429.50;4984838;28;20524;-63
2022/12/31 10:27:53;;;;;;;0.52;0.30;;;;;;;15.42;74.17;97429.19;5049575;28;20044;-64
2022/12/31 10:30:22;;;;;;;0.70;0.45;;;;;;;15.44;73.81;97421.53;5030259;28;20153;-63
2022/12/31 10:33:31;;;;;;;1.88;0.40;;;;;;;15.45;73.01;97412.25;5057431;28;20044;-63
2022/12/31 10:36:22;;;;;;;0.43;0.40;;;;;;;15.45;73.46;97413.03;5018761;28;20119;-64
2022/12/31 10:39:15;;;;;;;1.83;0.50;;;;;;;15.47;72.88;97413.59;5042473;28;20048;-63
2022/12/31 10:42:26;;;;;;;1.27;0.60;;;;;;;15.60;72.21;97403.94;5031631;28;20129;-63
2022/12/31 10:45:15;;;;;;;0.93;0.50;;;;;;;15.68;71.40;97394.34;5037968;28;20040;-64
2022/12/31 10:47:47;;;;;;;1.52;0.50;;;;;;;15.73;71.26;97396.22;5049748;28;20094;-63
2022/12/31 10:50:51;;;;;;;1.02;0.50;;;;;;;15.76;70.62;97392.91;5055144;28;20052;-63
2022/12/31 10:53:44;;;;;;;1.02;0.50;;;;;;;15.80;70.81;97393.16;5041260;28;20119;-63
2022/12/31 10:56:23;;;;;;;0.50;0.20;;;;;;;15.84;70.05;97383.28;5031134;28;20037;-64
2022/12/31 10:59:08;;;;;;;2.17;0.50;;;;;;;15.84;70.18;97391.47;5044757;28;20052;-63
2022/12/31 11:02:06;;;;;;;1.05;0.40;;;;;;;15.88;70.32;97387.06;5040227;28;20512;-63
2022/12/31 11:04:58;;;;;;;1.98;0.40;;;;;;;15.85;69.52;97388.47;5033097;28;20055;-63
2022/12/31 11:07:53;;;;;;;0.93;0.35;;;;;;;15.86;69.28;97394.75;5048887;28;20652;-63
2022/12/31 11:10:57;;;;;;;1.38;0.68;;;;;;;15.91;69.87;97389.25;5037568;28;20055;-63
2022/12/31 11:13:56;;;;;;;1.77;0.50;;;;;;;15.91;68.40;97386.50;5040759;28;20745;-63
2022/12/31 11:16:36;;;;;;;0.52;0.43;;;;;;;15.98;68.17;97397.13;5047091;28;20087;-63
2022/12/31 11:19:17;;;;;;;1.27;0.47;;;;;;;16.03;68.23;97393.56;5041785;28;20049;-64
2022/12/31 11:22:21;;;;;;;1.27;0.50;;;;;;;16.07;68.52;97383.69;5041121;28;20041;-64
2022/12/31 11:25:19;;;;;;;1.77;0.43;;;;;;;16.06;67.54;97388.31;5047627;28;20618;-63
2022/12/31 11:28:15;;;;;;;0.55;0.30;;;;;;;16.05;67.78;97383.97;5028802;28;20069;-66
2022/12/31 11:31:13;;;;;;;2.85;0.52;;;;;;;16.02;68.64;97368.16;5060770;28;20045;-62
2022/12/31 11:33:58;;;;;;;1.33;0.60;;;;;;;16.01;68.92;97366.53;5054308;28;20045;-61
2022/12/31 11:36:41;;;;;;;1.42;0.57;;;;;;;16.06;68.58;97368.38;5037526;28;20072;-67
2022/12/31 11:39:13;;;;;;;0.80;0.35;;;;;;;16.10;67.95;97366.69;5035951;28;20044;-66
2022/12/31 11:42:12;;;;;;;1.17;0.68;;;;;;;16.11;67.86;97352.75;5038442;28;20773;-65
2022/12/31 11:45:00;;;;;;;1.05;0.50;;;;;;;16.10;68.01;97353.03;5038898;28;20106;-67
2022/12/31 11:47:46;;;;;;;0.90;0.28;;;;;;;16.11;67.86;97358.22;5046647;28;20095;-66
2022/12/31 11:50:49;;;;;;;1.02;0.60;;;;;;;16.22;67.50;97358.13;5044636;28;20077;-65
2022/12/31 11:53:40;;;;;;;1.17;0.47;;;;;;;16.22;67.48;97349.94;5037046;28;20530;-65
2022/12/31 11:56:20;;;;;;;0.80;0.40;;;;;;;16.23;66.78;97346.09;5059357;28;20056;-64
2022/12/31 11:58:49;;;;;;;1.02;0.40;;;;;;;16.25;66.96;97344.69;5045719;28;20072;-64
2022/12/31 12:01:21;;;;;;;1.35;0.70;;;;;;;16.33;66.91;97347.91;5037975;28;20064;-65
2022/12/31 12:03:48;;;;;;;1.13;0.50;;;;;;;16.31;67.00;97347.38;5039405;28;20057;-63
2022/12/31 12:06:18;;;;;;;1.95;0.60;;;;;;;16.35;66.10;97353.88;5039465;28;20072;-63
2022/12/31 12:08:46;;;;;;;2.80;0.40;;;;;;;16.37;66.24;97348.94;5058087;28;20048;-63
2022/12/31 12:11:26;;;;;;;1.13;0.50;;;;;;;16.35;66.19;97346.50;5051695;28;20068;-64
2022/12/31 12:13:53;;;;;;;0.60;0.30;;;;;;;16.44;65.82;97345.88;5046283;28;20053;-63
2022/12/31 12:16:24;;;;;;;2.65;0.98;;;;;;;16.50;65.62;97341.97;5057677;28;20215;-62
2022/12/31 12:19:17;;;;;;;0.90;0.30;;;;;;;16.45;65.36;97337.38;5051655;28;20059;-60
2022/12/31 12:21:46;;;;;;;0.93;0.30;;;;;;;16.47;65.45;97332.44;5061002;28;20044;-61
2022/12/31 12:24:29;;;;;;;2.38;0.50;;;;;;;16.41;65.34;97330.88;5065645;28;20049;-60